Time;durP1;ratioP1;P1;durP2;ratioP2;P2;SDS_P1;SDS_P2;PMS_P1;PMS_P2;Temp;Humidity;BMP_temperature;BMP_pressure;BME280_temperature;BME280_humidity;BME280_pressure;Samples;Min_cycle;Max_cycle;Signal;HPM_P1;HPM_P2
2023/07/01 00:01:29;;;;;;;3.42;1.73;;;19.80;63.00;;;;;;5115086;28;20032;-77
2023/07/01 00:03:54;;;;;;;3.80;1.85;;;19.80;63.00;;;;;;5115103;28;20036;-77
2023/07/01 00:06:20;;;;;;;3.88;2.08;;;19.80;62.40;;;;;;5115951;28;20032;-77
2023/07/01 00:08:45;;;;;;;4.53;2.15;;;19.80;62.40;;;;;;5114961;28;20024;-77
2023/07/01 00:11:11;;;;;;;5.47;2.10;;;19.80;62.90;;;;;;5115030;28;20090;-77
2023/07/01 00:13:37;;;;;;;4.32;1.98;;;19.80;62.60;;;;;;5114911;28;20021;-77
2023/07/01 00:16:04;;;;;;;4.80;2.33;;;19.80;63.20;;;;;;5115801;28;20028;-77
2023/07/01 00:18:30;;;;;;;4.78;1.90;;;19.70;63.10;;;;;;5098121;28;20035;-77
2023/07/01 00:20:56;;;;;;;3.28;1.92;;;19.60;63.00;;;;;;5114721;28;20024;-77
2023/07/01 00:23:21;;;;;;;4.97;1.70;;;19.60;63.20;;;;;;5097933;28;20028;-77
2023/07/01 00:25:47;;;;;;;4.03;1.73;;;19.50;63.20;;;;;;5114332;28;20048;-77
2023/07/01 00:28:13;;;;;;;4.43;1.98;;;19.60;62.80;;;;;;5097691;28;20502;-77
2023/07/01 00:30:39;;;;;;;6.88;1.67;;;19.70;63.10;;;;;;5114682;28;20028;-76
2023/07/01 00:33:05;;;;;;;6.57;2.13;;;19.70;63.40;;;;;;5115620;28;20020;-77
2023/07/01 00:35:31;;;;;;;2.53;1.60;;;19.80;63.20;;;;;;5115355;28;20032;-77
2023/07/01 00:37:57;;;;;;;4.35;1.70;;;19.80;63.10;;;;;;5114498;28;20088;-77
2023/07/01 00:40:23;;;;;;;3.90;1.95;;;19.70;63.10;;;;;;5097402;28;20025;-77
2023/07/01 00:42:49;;;;;;;2.97;1.63;;;19.70;63.10;;;;;;5114348;28;20099;-76
2023/07/01 00:45:14;;;;;;;5.65;1.90;;;19.70;63.40;;;;;;5114144;28;20032;-77
2023/07/01 00:47:40;;;;;;;4.35;1.90;;;19.70;63.50;;;;;;5114240;28;20027;-77
2023/07/01 00:50:10;;;;;;;5.75;1.92;;;19.60;63.90;;;;;;5115143;28;20040;-77
2023/07/01 00:52:38;;;;;;;4.60;1.95;;;19.60;63.60;;;;;;5114301;28;20019;-77
2023/07/01 00:55:04;;;;;;;6.50;2.00;;;19.60;63.50;;;;;;5115044;28;20024;-77
2023/07/01 00:57:31;;;;;;;4.22;1.75;;;19.60;63.90;;;;;;5097262;28;20036;-77
2023/07/01 00:59:57;;;;;;;4.05;1.92;;;19.50;63.80;;;;;;5114112;28;20399;-77
2023/07/01 01:02:27;;;;;;;6.90;2.00;;;19.50;64.30;;;;;;5096977;28;20021;-77
2023/07/01 01:05:10;;;;;;;4.72;1.90;;;19.50;64.40;;;;;;5114839;28;20043;-77
2023/07/01 01:08:06;;;;;;;6.60;2.03;;;19.50;64.50;;;;;;5115000;28;20047;-77
2023/07/01 01:10:36;;;;;;;4.60;1.65;;;19.50;64.00;;;;;;5114007;28;20016;-77
2023/07/01 01:13:04;;;;;;;5.20;2.10;;;19.50;64.40;;;;;;5113753;28;20483;-77
2023/07/01 01:15:30;;;;;;;6.05;2.53;;;19.50;64.70;;;;;;5114676;28;20054;-77
2023/07/01 01:18:04;;;;;;;5.93;1.95;;;19.50;64.60;;;;;;5114622;28;20024;-77
2023/07/01 01:20:33;;;;;;;5.97;2.13;;;19.50;64.60;;;;;;5114669;28;20403;-77
2023/07/01 01:23:03;;;;;;;7.88;2.28;;;19.50;65.50;;;;;;5096777;28;20035;-77
2023/07/01 01:25:55;;;;;;;6.57;2.20;;;19.50;64.90;;;;;;5114226;28;20046;-77
2023/07/01 01:28:21;;;;;;;5.80;2.08;;;19.60;64.60;;;;;;5114667;28;20020;-76
2023/07/01 01:30:47;;;;;;;3.90;2.10;;;19.50;64.60;;;;;;5114518;28;20027;-77
2023/07/01 01:33:15;;;;;;;5.72;2.10;;;19.50;64.60;;;;;;5096425;28;20024;-77
2023/07/01 01:35:41;;;;;;;3.30;2.08;;;19.50;64.90;;;;;;5114293;28;20091;-76
2023/07/01 01:38:16;;;;;;;4.40;1.65;;;19.50;65.00;;;;;;5114254;28;20031;-76
2023/07/01 01:41:04;;;;;;;6.38;1.77;;;19.50;65.00;;;;;;5113193;28;20031;-76
2023/07/01 01:43:41;;;;;;;3.88;1.85;;;19.50;65.20;;;;;;5113210;28;20031;-77
2023/07/01 01:46:08;;;;;;;5.00;2.10;;;19.60;65.50;;;;;;5113262;28;20099;-76
2023/07/01 01:48:36;;;;;;;4.88;1.70;;;19.50;65.60;;;;;;5114222;28;20016;-76
2023/07/01 01:51:03;;;;;;;6.30;2.17;;;19.50;65.90;;;;;;5096430;28;20033;-77
2023/07/01 01:53:31;;;;;;;3.45;2.03;;;19.60;66.00;;;;;;5113985;28;20016;-76
2023/07/01 01:55:58;;;;;;;4.43;1.90;;;19.60;66.30;;;;;;5114002;28;20021;-77
2023/07/01 01:58:24;;;;;;;4.07;1.90;;;19.60;66.60;;;;;;5113950;28;20048;-77
2023/07/01 02:00:49;;;;;;;3.83;1.85;;;19.50;66.90;;;;;;5112970;28;20024;-77
2023/07/01 02:03:15;;;;;;;3.53;1.92;;;19.50;67.00;;;;;;5112892;28;20069;-77
2023/07/01 02:05:41;;;;;;;3.83;1.95;;;19.50;67.00;;;;;;5095883;28;20416;-76
2023/07/01 02:08:07;;;;;;;4.25;2.00;;;19.50;67.30;;;;;;5095896;28;20088;-76
2023/07/01 02:10:33;;;;;;;3.40;1.80;;;19.50;67.30;;;;;;5112886;28;20024;-76
2023/07/01 02:12:59;;;;;;;4.00;1.80;;;19.50;67.70;;;;;;5095825;28;20070;-76
2023/07/01 02:15:24;;;;;;;3.15;2.00;;;19.50;67.90;;;;;;5112745;28;20032;-76
2023/07/01 02:17:50;;;;;;;5.40;2.22;;;19.40;67.90;;;;;;5112606;28;20059;-76
2023/07/01 02:20:16;;;;;;;5.55;2.17;;;19.40;68.50;;;;;;5113633;28;20044;-77
2023/07/01 02:22:42;;;;;;;6.68;2.40;;;19.40;68.20;;;;;;5113467;28;20032;-77
2023/07/01 02:25:08;;;;;;;3.63;1.73;;;19.40;68.70;;;;;;5095222;28;20112;-76
2023/07/01 02:27:33;;;;;;;7.78;1.88;;;19.40;68.40;;;;;;5112623;28;20028;-77
2023/07/01 02:30:00;;;;;;;3.40;1.90;;;19.40;68.80;;;;;;5112507;28;20051;-77
2023/07/01 02:32:25;;;;;;;3.92;2.03;;;19.50;68.90;;;;;;5095657;28;20031;-77
2023/07/01 02:34:51;;;;;;;5.70;2.25;;;19.50;68.90;;;;;;5113404;28;20024;-76
2023/07/01 02:37:17;;;;;;;5.57;2.25;;;19.50;69.00;;;;;;5112542;28;20016;-76
2023/07/01 02:39:45;;;;;;;7.72;2.28;;;19.40;69.30;;;;;;5112458;28;20020;-77
2023/07/01 02:42:11;;;;;;;5.93;2.42;;;19.30;69.40;;;;;;5095904;28;20054;-76
2023/07/01 02:44:37;;;;;;;8.07;2.20;;;19.30;70.00;;;;;;5095543;28;20024;-76
2023/07/01 02:47:03;;;;;;;4.38;2.38;;;19.40;69.90;;;;;;5095396;28;20119;-76
2023/07/01 02:49:28;;;;;;;4.38;2.40;;;19.40;69.90;;;;;;5095480;28;20054;-76
2023/07/01 02:51:54;;;;;;;5.68;2.38;;;19.30;70.30;;;;;;5113487;28;20020;-77
2023/07/01 02:54:20;;;;;;;8.68;2.20;;;19.40;70.40;;;;;;5112452;28;20021;-77
2023/07/01 02:56:45;;;;;;;4.85;2.50;;;19.30;70.80;;;;;;5095378;28;20032;-76
2023/07/01 02:59:11;;;;;;;7.00;2.33;;;19.30;72.30;;;;;;5113261;28;20024;-76
2023/07/01 03:01:37;;;;;;;3.33;2.10;;;19.20;72.40;;;;;;5112302;28;20020;-76
2023/07/01 03:04:06;;;;;;;5.05;2.15;;;19.20;72.50;;;;;;5113193;28;20044;-76
2023/07/01 03:06:31;;;;;;;3.85;2.65;;;19.20;73.00;;;;;;5095153;28;20092;-76
2023/07/01 03:08:57;;;;;;;8.63;2.83;;;19.20;72.80;;;;;;5112286;28;20020;-76
2023/07/01 03:11:23;;;;;;;6.32;2.40;;;19.20;73.10;;;;;;5095244;28;20027;-76
2023/07/01 03:13:48;;;;;;;6.85;2.20;;;19.20;73.40;;;;;;5095236;28;20020;-77
2023/07/01 03:16:14;;;;;;;4.82;2.13;;;19.20;73.30;;;;;;5112220;28;20038;-76
2023/07/01 03:18:40;;;;;;;3.00;2.40;;;19.20;73.80;;;;;;5112082;28;20025;-76
2023/07/01 03:21:05;;;;;;;6.07;2.35;;;19.20;74.10;;;;;;5113184;28;20074;-76
2023/07/01 03:23:31;;;;;;;3.50;2.30;;;19.10;75.30;;;;;;5112197;28;20028;-76
2023/07/01 03:25:56;;;;;;;7.00;2.65;;;19.10;76.00;;;;;;5094860;28;20063;-76
2023/07/01 03:28:22;;;;;;;5.78;2.35;;;19.10;76.40;;;;;;5113114;28;20027;-76
2023/07/01 03:30:48;;;;;;;2.78;1.77;;;18.90;78.80;;;;;;5112961;28;20020;-76
2023/07/01 03:33:15;;;;;;;5.63;1.50;;;18.80;80.50;;;;;;5113215;28;20028;-75
2023/07/01 03:35:41;;;;;;;3.03;1.92;;;18.70;81.40;;;;;;5115664;28;20032;-75
2023/07/01 03:38:07;;;;;;;2.83;1.60;;;18.50;83.20;;;;;;5115697;28;20043;-75
2023/07/01 03:40:32;;;;;;;3.35;1.42;;;18.50;83.50;;;;;;5116512;28;20044;-76
2023/07/01 03:42:58;;;;;;;2.33;1.50;;;18.50;83.30;;;;;;5098620;28;20032;-75
2023/07/01 03:45:24;;;;;;;3.80;1.80;;;18.40;83.80;;;;;;5116516;28;20035;-75
2023/07/01 03:47:49;;;;;;;3.85;1.90;;;18.40;84.00;;;;;;5116400;28;20051;-76
2023/07/01 03:50:15;;;;;;;3.08;1.77;;;18.50;84.00;;;;;;5115414;28;20035;-76
2023/07/01 03:52:42;;;;;;;5.50;2.10;;;18.50;83.80;;;;;;5116271;28;20024;-76
2023/07/01 03:55:14;;;;;;;3.50;2.20;;;18.50;84.10;;;;;;5116270;28;20081;-75
2023/07/01 03:57:40;;;;;;;3.83;2.27;;;18.50;83.40;;;;;;5115224;28;20032;-76
2023/07/01 04:00:39;;;;;;;3.50;2.20;;;18.50;83.70;;;;;;5098178;28;20330;-77
2023/07/01 04:03:08;;;;;;;;;;;18.50;83.30;;;;;;5114406;28;20024;-76
2023/07/01 04:05:35;;;;;;;4.55;2.17;;;18.50;84.20;;;;;;5116175;28;19962;-76
2023/07/01 04:08:01;;;;;;;4.65;2.00;;;18.30;85.00;;;;;;5115068;28;20020;-77
2023/07/01 04:10:27;;;;;;;2.97;1.77;;;18.30;85.00;;;;;;5115984;28;20016;-77
2023/07/01 04:12:53;;;;;;;4.18;1.90;;;18.30;85.70;;;;;;5114909;28;20052;-76
2023/07/01 04:15:19;;;;;;;2.97;1.52;;;18.30;85.70;;;;;;5114911;28;20028;-75
2023/07/01 04:17:46;;;;;;;4.28;2.08;;;18.30;87.00;;;;;;5097937;28;20032;-76
2023/07/01 04:20:13;;;;;;;3.60;2.10;;;18.20;87.80;;;;;;5115762;28;20023;-76
2023/07/01 04:22:39;;;;;;;4.38;2.20;;;18.20;87.90;;;;;;5115728;28;20088;-76
2023/07/01 04:25:06;;;;;;;4.03;1.98;;;18.00;89.10;;;;;;5114546;28;20045;-76
2023/07/01 04:27:32;;;;;;;3.70;2.20;;;18.00;89.90;;;;;;5115665;28;20471;-75
2023/07/01 04:29:58;;;;;;;3.28;2.05;;;17.90;90.10;;;;;;5115612;28;20020;-75
2023/07/01 04:32:24;;;;;;;4.18;1.95;;;17.90;90.30;;;;;;5114544;28;20028;-75
2023/07/01 04:34:49;;;;;;;5.50;3.25;;;17.90;90.50;;;;;;5114577;28;20066;-75
2023/07/01 04:37:15;;;;;;;4.38;2.30;;;17.80;90.60;;;;;;5115453;28;20483;-75
2023/07/01 04:39:42;;;;;;;3.08;2.00;;;17.90;90.80;;;;;;5114559;28;20083;-74
2023/07/01 04:42:07;;;;;;;3.55;1.80;;;17.80;91.00;;;;;;5097668;28;20020;-75
2023/07/01 04:44:33;;;;;;;3.78;2.10;;;17.70;91.40;;;;;;5115278;28;20039;-74
2023/07/01 04:46:59;;;;;;;3.20;2.20;;;17.70;91.60;;;;;;5115187;28;20032;-74
2023/07/01 04:49:25;;;;;;;2.78;2.00;;;17.70;91.60;;;;;;5114191;28;20104;-76
2023/07/01 04:51:52;;;;;;;3.83;2.38;;;17.70;91.70;;;;;;5114126;28;20074;-74
2023/07/01 04:54:18;;;;;;;3.67;2.42;;;17.70;92.10;;;;;;5114169;28;20021;-76
2023/07/01 04:56:44;;;;;;;5.05;2.10;;;17.70;91.90;;;;;;5114129;28;20135;-75
2023/07/01 04:59:09;;;;;;;2.70;2.00;;;17.60;92.30;;;;;;5114048;28;20056;-75
2023/07/01 05:01:35;;;;;;;3.70;2.20;;;17.50;92.50;;;;;;5114034;28;20048;-75
2023/07/01 05:04:00;;;;;;;4.90;2.25;;;17.60;92.50;;;;;;5097031;28;20043;-75
2023/07/01 05:06:26;;;;;;;3.03;2.10;;;17.60;92.60;;;;;;5096857;28;20039;-75
2023/07/01 05:08:53;;;;;;;2.35;1.90;;;17.50;92.80;;;;;;5113918;28;20024;-76
2023/07/01 05:11:19;;;;;;;2.90;2.20;;;17.50;92.70;;;;;;5097079;28;20042;-75
2023/07/01 05:13:44;;;;;;;3.33;2.40;;;17.50;93.00;;;;;;5114717;28;20020;-75
2023/07/01 05:16:10;;;;;;;4.00;2.20;;;17.40;93.10;;;;;;5113828;28;20024;-76
2023/07/01 05:18:36;;;;;;;3.75;2.10;;;17.40;93.20;;;;;;5114647;28;20024;-75
2023/07/01 05:21:02;;;;;;;4.15;2.17;;;17.40;93.40;;;;;;5113692;28;20035;-75
2023/07/01 05:23:27;;;;;;;3.63;2.22;;;17.40;93.20;;;;;;5114528;28;20039;-76
2023/07/01 05:25:53;;;;;;;3.10;2.17;;;17.50;93.20;;;;;;5096392;28;20040;-75
2023/07/01 05:28:18;;;;;;;3.90;2.17;;;17.40;93.50;;;;;;5096553;28;20121;-76
2023/07/01 05:30:46;;;;;;;3.40;2.50;;;17.40;93.60;;;;;;5113529;28;20023;-76
2023/07/01 05:33:12;;;;;;;2.97;2.00;;;17.40;93.60;;;;;;5113392;28;20103;-76
2023/07/01 05:35:37;;;;;;;3.53;2.08;;;17.40;93.50;;;;;;5113219;28;20020;-76
2023/07/01 05:38:11;;;;;;;3.67;2.22;;;17.50;93.50;;;;;;5096405;28;20024;-76
2023/07/01 05:40:36;;;;;;;5.32;2.35;;;17.40;93.60;;;;;;5113248;28;20028;-76
2023/07/01 05:43:03;;;;;;;4.15;2.35;;;17.40;93.80;;;;;;5113130;28;20039;-74
2023/07/01 05:45:28;;;;;;;4.22;2.45;;;17.40;93.80;;;;;;5114056;28;20036;-75
2023/07/01 05:47:54;;;;;;;4.35;2.67;;;17.40;93.80;;;;;;5113222;28;20048;-75
2023/07/01 05:50:19;;;;;;;4.18;2.42;;;17.40;93.80;;;;;;5114057;28;20028;-75
2023/07/01 05:52:45;;;;;;;4.05;2.58;;;17.40;94.00;;;;;;5096179;28;20020;-75
2023/07/01 05:55:11;;;;;;;3.97;2.15;;;17.50;93.90;;;;;;5112990;28;20028;-76
2023/07/01 05:57:36;;;;;;;3.10;2.05;;;17.50;94.10;;;;;;5095825;28;20020;-76
2023/07/01 06:00:05;;;;;;;3.55;2.25;;;17.50;94.10;;;;;;5096076;28;20509;-76
2023/07/01 06:02:31;;;;;;;2.97;2.28;;;17.40;94.00;;;;;;5113874;28;20035;-76
2023/07/01 06:04:56;;;;;;;3.53;2.40;;;17.50;93.90;;;;;;5096031;28;20032;-76
2023/07/01 06:07:22;;;;;;;3.15;2.30;;;17.50;94.00;;;;;;5112829;28;20024;-77
2023/07/01 06:09:48;;;;;;;4.22;2.50;;;17.50;94.10;;;;;;5112876;28;20042;-75
2023/07/01 06:12:14;;;;;;;2.97;2.33;;;17.50;94.20;;;;;;5113762;28;20012;-75
2023/07/01 06:14:40;;;;;;;2.72;2.20;;;17.60;94.20;;;;;;5113724;28;20107;-75
2023/07/01 06:17:06;;;;;;;3.97;2.20;;;17.40;94.30;;;;;;5112667;28;20036;-74
2023/07/01 06:19:31;;;;;;;3.60;2.65;;;17.40;94.60;;;;;;5112769;28;20028;-74
2023/07/01 06:21:57;;;;;;;3.90;2.88;;;17.40;94.70;;;;;;5113615;28;20039;-73
2023/07/01 06:24:23;;;;;;;4.55;2.60;;;17.40;94.60;;;;;;5095777;28;20020;-74
2023/07/01 06:26:48;;;;;;;4.80;2.70;;;17.50;94.80;;;;;;5112301;28;20506;-74
2023/07/01 06:29:14;;;;;;;3.47;2.40;;;17.40;94.70;;;;;;5113518;28;20107;-74
2023/07/01 06:31:39;;;;;;;4.07;2.42;;;17.50;94.70;;;;;;5112594;28;20111;-74
2023/07/01 06:34:12;;;;;;;3.92;2.60;;;17.50;94.70;;;;;;5095587;28;20024;-74
2023/07/01 06:36:38;;;;;;;4.68;3.17;;;17.50;94.80;;;;;;5113645;28;20101;-74
2023/07/01 06:39:04;;;;;;;4.18;2.53;;;17.50;94.70;;;;;;5113592;28;20033;-74
2023/07/01 06:41:30;;;;;;;4.28;2.88;;;17.60;94.50;;;;;;5112487;28;20062;-74
2023/07/01 06:43:55;;;;;;;3.83;2.28;;;17.60;94.70;;;;;;5113380;28;20039;-74
2023/07/01 06:46:21;;;;;;;4.10;3.05;;;17.60;94.60;;;;;;5095410;28;20050;-73
2023/07/01 06:48:46;;;;;;;5.10;2.97;;;17.70;94.60;;;;;;5113341;28;20050;-73
2023/07/01 06:51:13;;;;;;;4.63;2.85;;;17.70;94.50;;;;;;5095496;28;20047;-75
2023/07/01 06:53:39;;;;;;;4.35;3.13;;;17.60;94.70;;;;;;5113295;28;20046;-74
2023/07/01 06:56:06;;;;;;;4.53;2.72;;;17.70;94.60;;;;;;5113284;28;20055;-74
2023/07/01 06:58:32;;;;;;;4.22;2.90;;;17.70;94.70;;;;;;5113247;28;20032;-74
2023/07/01 07:00:57;;;;;;;4.30;2.47;;;17.70;94.80;;;;;;5113282;28;20035;-74
2023/07/01 07:03:23;;;;;;;3.70;2.40;;;17.80;94.80;;;;;;5113362;28;20039;-74
2023/07/01 07:05:49;;;;;;;4.60;3.22;;;17.70;94.90;;;;;;5113143;28;20043;-74
2023/07/01 07:08:14;;;;;;;4.35;2.85;;;17.60;95.00;;;;;;5113522;28;20024;-75
2023/07/01 07:10:40;;;;;;;3.67;2.80;;;17.70;95.10;;;;;;5117141;28;20020;-75
2023/07/01 07:13:05;;;;;;;5.82;2.90;;;17.70;95.10;;;;;;5117096;28;20028;-74
2023/07/01 07:15:31;;;;;;;3.47;2.60;;;17.70;95.20;;;;;;5117154;28;20028;-74
2023/07/01 07:17:57;;;;;;;4.07;2.45;;;17.60;95.30;;;;;;5116123;28;20054;-75
2023/07/01 07:20:22;;;;;;;4.47;2.63;;;17.70;95.30;;;;;;5116845;28;20020;-75
2023/07/01 07:22:48;;;;;;;3.33;2.63;;;17.70;95.20;;;;;;5116009;28;20039;-76
2023/07/01 07:25:17;;;;;;;5.53;3.08;;;17.70;95.20;;;;;;5115635;28;20080;-76
2023/07/01 07:27:44;;;;;;;4.40;2.58;;;17.80;95.00;;;;;;5116846;28;20028;-74
2023/07/01 07:30:12;;;;;;;3.75;2.65;;;17.80;95.00;;;;;;5115719;28;20031;-74
2023/07/01 07:32:38;;;;;;;6.45;2.50;;;17.80;95.10;;;;;;5116624;28;20024;-74
2023/07/01 07:35:04;;;;;;;4.13;2.30;;;17.70;94.90;;;;;;5115634;28;20016;-75
2023/07/01 07:37:29;;;;;;;3.65;2.60;;;17.80;94.80;;;;;;5115759;28;20024;-75
2023/07/01 07:39:58;;;;;;;4.88;2.53;;;17.80;94.70;;;;;;5115617;28;20047;-74
2023/07/01 07:42:24;;;;;;;2.85;2.38;;;17.80;94.90;;;;;;5115628;28;20044;-75
2023/07/01 07:44:50;;;;;;;4.95;2.97;;;17.80;94.90;;;;;;5115452;28;20050;-76
2023/07/01 07:47:15;;;;;;;3.30;2.60;;;17.70;95.10;;;;;;5115447;28;20043;-76
2023/07/01 07:49:41;;;;;;;5.30;2.95;;;17.80;95.00;;;;;;5115583;28;20028;-76
2023/07/01 07:52:07;;;;;;;4.50;2.72;;;17.80;95.20;;;;;;5098453;28;20031;-75
2023/07/01 07:54:32;;;;;;;5.65;3.35;;;17.80;95.20;;;;;;5116307;28;20028;-75
2023/07/01 07:56:59;;;;;;;4.85;2.95;;;17.70;95.10;;;;;;5098355;28;20054;-76
2023/07/01 07:59:28;;;;;;;6.28;3.03;;;17.80;95.20;;;;;;5115350;28;20028;-76
2023/07/01 08:01:57;;;;;;;4.32;3.10;;;17.80;95.30;;;;;;5115197;28;20024;-76
2023/07/01 08:04:23;;;;;;;4.90;3.20;;;17.80;95.40;;;;;;5115200;28;20024;-74
2023/07/01 08:06:48;;;;;;;4.55;3.30;;;17.90;95.10;;;;;;5115070;28;20032;-75
2023/07/01 08:09:14;;;;;;;4.70;3.33;;;17.90;95.20;;;;;;5115161;28;20024;-74
2023/07/01 08:11:40;;;;;;;4.78;4.20;;;17.90;95.50;;;;;;5115045;28;20028;-75
2023/07/01 08:14:05;;;;;;;5.65;4.07;;;17.90;95.40;;;;;;5114868;28;20051;-74
2023/07/01 08:16:32;;;;;;;5.35;3.78;;;18.00;95.40;;;;;;5115841;28;20039;-74
2023/07/01 08:18:57;;;;;;;4.63;3.42;;;18.00;95.40;;;;;;5115488;28;20035;-75
2023/07/01 08:21:23;;;;;;;5.25;3.45;;;18.00;95.30;;;;;;5114801;28;20084;-75
2023/07/01 08:23:49;;;;;;;7.30;3.75;;;18.00;95.40;;;;;;5114790;28;20054;-74
2023/07/01 08:26:15;;;;;;;5.53;4.07;;;18.00;95.70;;;;;;5115433;28;20051;-75
2023/07/01 08:28:40;;;;;;;6.03;4.20;;;18.00;95.60;;;;;;5115606;28;20020;-75
2023/07/01 08:31:06;;;;;;;5.10;4.03;;;18.10;95.50;;;;;;5114582;28;20050;-75
2023/07/01 08:33:33;;;;;;;5.60;4.22;;;18.10;95.50;;;;;;5097633;28;20029;-75
2023/07/01 08:35:58;;;;;;;5.72;4.43;;;18.10;95.80;;;;;;5114495;28;20031;-75
2023/07/01 08:38:25;;;;;;;5.50;4.30;;;18.20;95.90;;;;;;5114505;28;20032;-75
2023/07/01 08:40:53;;;;;;;5.70;3.60;;;18.20;95.60;;;;;;5115405;28;20078;-75
2023/07/01 08:43:25;;;;;;;5.18;3.85;;;18.20;95.80;;;;;;5114404;28;20088;-75
2023/07/01 08:45:52;;;;;;;5.37;4.03;;;18.20;96.10;;;;;;5114304;28;20540;-76
2023/07/01 08:48:22;;;;;;;5.57;3.97;;;18.20;96.10;;;;;;5114347;28;20273;-75
2023/07/01 08:51:12;;;;;;;5.90;4.20;;;18.20;96.20;;;;;;5115366;28;20032;-75
2023/07/01 08:53:40;;;;;;;6.45;4.78;;;18.20;96.40;;;;;;5115346;28;20028;-75
2023/07/01 08:56:06;;;;;;;5.95;4.50;;;18.10;96.60;;;;;;5115090;28;20028;-76
2023/07/01 08:58:32;;;;;;;6.25;4.50;;;18.20;96.50;;;;;;5115053;28;20094;-76
2023/07/01 09:00:58;;;;;;;5.63;4.43;;;18.30;96.50;;;;;;5115021;28;20020;-76
2023/07/01 09:03:26;;;;;;;5.97;4.15;;;18.30;96.20;;;;;;5114938;28;20102;-76
2023/07/01 09:05:51;;;;;;;5.32;4.00;;;18.30;96.80;;;;;;5114828;28;20028;-76
2023/07/01 09:08:17;;;;;;;5.43;4.00;;;18.30;96.60;;;;;;5114903;28;20016;-76
2023/07/01 09:10:43;;;;;;;5.47;4.40;;;18.30;96.70;;;;;;5114814;28;20364;-77
2023/07/01 09:13:14;;;;;;;5.53;4.05;;;18.40;97.10;;;;;;5096849;28;20025;-78
2023/07/01 09:15:47;;;;;;;3.63;3.20;;;18.40;97.40;;;;;;5114885;28;20032;-77
2023/07/01 09:18:28;;;;;;;5.03;3.50;;;18.30;97.00;;;;;;5114683;28;20030;-77
2023/07/01 09:20:54;;;;;;;4.85;3.72;;;18.30;97.30;;;;;;5114656;28;20110;-77
2023/07/01 09:23:29;;;;;;;4.60;3.38;;;18.40;97.20;;;;;;5113722;28;20032;-77
2023/07/01 09:26:08;;;;;;;5.35;3.50;;;18.40;97.20;;;;;;5113276;28;20130;-78
2023/07/01 09:28:34;;;;;;;5.20;3.40;;;18.40;97.40;;;;;;5113463;28;20033;-77
2023/07/01 09:31:01;;;;;;;4.15;3.03;;;18.40;97.40;;;;;;5112699;28;20012;-76
2023/07/01 09:33:27;;;;;;;3.47;3.00;;;18.50;97.40;;;;;;5113279;28;20024;-76
2023/07/01 09:35:57;;;;;;;3.78;3.00;;;18.50;97.50;;;;;;5114300;28;20495;-76
2023/07/01 09:38:26;;;;;;;3.83;2.67;;;18.40;97.70;;;;;;5113361;28;20023;-76
2023/07/01 09:40:51;;;;;;;3.20;2.90;;;18.40;97.70;;;;;;5114259;28;20032;-76
2023/07/01 09:43:19;;;;;;;3.92;2.72;;;18.30;97.90;;;;;;5114262;28;20092;-77
2023/07/01 09:45:57;;;;;;;5.57;2.47;;;18.40;98.50;;;;;;5096336;28;20095;-77
2023/07/01 09:48:23;;;;;;;2.90;2.42;;;18.50;98.30;;;;;;5113109;28;20049;-76
2023/07/01 09:50:50;;;;;;;3.25;2.45;;;18.50;98.20;;;;;;5096129;28;20022;-76
2023/07/01 09:53:24;;;;;;;2.75;2.47;;;18.60;98.30;;;;;;5096231;28;20020;-76
2023/07/01 09:55:50;;;;;;;3.75;2.58;;;18.60;98.20;;;;;;5096276;28;20122;-76
2023/07/01 09:58:16;;;;;;;2.83;2.53;;;18.60;98.50;;;;;;5113096;28;20020;-76
2023/07/01 10:00:42;;;;;;;3.58;2.42;;;18.70;98.30;;;;;;5113930;28;20036;-76
2023/07/01 10:03:08;;;;;;;2.63;2.10;;;18.70;98.00;;;;;;5112872;28;20059;-76
2023/07/01 10:05:34;;;;;;;4.25;2.53;;;18.70;98.00;;;;;;5112753;28;20032;-76
2023/07/01 10:08:00;;;;;;;2.75;2.17;;;18.80;98.00;;;;;;5096038;28;20039;-76
2023/07/01 10:10:26;;;;;;;2.80;2.13;;;18.80;98.00;;;;;;5113901;28;20035;-75
2023/07/01 10:12:54;;;;;;;2.40;1.92;;;18.80;98.30;;;;;;5112810;28;20091;-75
2023/07/01 10:15:28;;;;;;;2.55;2.10;;;18.80;98.00;;;;;;5113771;28;20091;-76
2023/07/01 10:17:55;;;;;;;3.08;2.22;;;18.80;98.20;;;;;;5113738;28;20027;-75
2023/07/01 10:20:31;;;;;;;3.88;2.40;;;18.80;98.40;;;;;;5112627;28;20069;-75
2023/07/01 10:23:01;;;;;;;2.97;2.17;;;18.80;98.10;;;;;;5112669;28;20031;-75
2023/07/01 10:25:39;;;;;;;3.25;2.20;;;18.90;98.10;;;;;;5113396;28;20067;-76
2023/07/01 10:28:12;;;;;;;2.83;2.17;;;18.90;98.00;;;;;;5112660;28;20028;-76
2023/07/01 10:30:44;;;;;;;2.45;1.90;;;18.90;97.70;;;;;;5112707;28;20021;-76
2023/07/01 10:33:33;;;;;;;2.85;1.95;;;18.90;97.80;;;;;;5112591;28;20020;-76
2023/07/01 10:36:08;;;;;;;2.78;2.15;;;18.90;97.90;;;;;;5112830;28;20035;-76
2023/07/01 10:38:35;;;;;;;3.83;1.80;;;18.90;97.70;;;;;;5113463;28;20054;-76
2023/07/01 10:41:03;;;;;;;3.88;2.10;;;18.90;97.90;;;;;;5112484;28;20020;-76
2023/07/01 10:43:36;;;;;;;2.35;1.80;;;19.00;97.90;;;;;;5116011;28;20035;-76
2023/07/01 10:46:12;;;;;;;2.90;1.98;;;19.00;97.70;;;;;;5117716;28;20049;-77
2023/07/01 10:49:00;;;;;;;2.97;1.52;;;19.10;97.50;;;;;;5117662;28;20052;-76
2023/07/01 10:51:26;;;;;;;3.05;1.80;;;19.10;97.50;;;;;;5117650;28;20044;-77
2023/07/01 10:53:57;;;;;;;2.28;1.80;;;19.10;97.60;;;;;;5099600;28;20032;-76
2023/07/01 10:56:22;;;;;;;2.08;1.63;;;19.20;97.40;;;;;;5117437;28;20056;-76
2023/07/01 10:59:25;;;;;;;3.45;1.75;;;19.30;97.20;;;;;;5116524;28;20032;-77
2023/07/01 11:01:59;;;;;;;;;;;19.30;97.20;;;;;;5117776;28;20043;-77
2023/07/01 11:04:51;;;;;;;2.92;2.05;;;19.30;97.50;;;;;;5117475;28;19904;-77
2023/07/01 11:07:26;;;;;;;2.67;1.65;;;19.30;97.40;;;;;;5117206;28;20027;-77
2023/07/01 11:09:52;;;;;;;2.47;1.73;;;19.30;97.40;;;;;;5117225;28;20050;-77
2023/07/01 11:12:18;;;;;;;2.30;1.63;;;19.30;97.30;;;;;;5117260;28;20028;-77
2023/07/01 11:14:44;;;;;;;3.20;1.70;;;19.30;97.00;;;;;;5117051;28;20060;-77
2023/07/01 11:17:14;;;;;;;2.20;1.48;;;19.30;97.10;;;;;;5116029;28;20020;-77
2023/07/01 11:19:39;;;;;;;2.53;1.70;;;19.30;97.00;;;;;;5117145;28;20046;-76
2023/07/01 11:22:09;;;;;;;2.53;1.65;;;19.40;97.20;;;;;;5115914;28;20032;-77
2023/07/01 11:24:36;;;;;;;3.17;1.77;;;19.40;97.00;;;;;;5116864;28;20028;-76
2023/07/01 11:27:05;;;;;;;3.17;2.10;;;19.50;97.40;;;;;;5116614;28;20044;-77
2023/07/01 11:29:31;;;;;;;4.95;2.38;;;19.50;97.60;;;;;;5099220;28;20057;-76
2023/07/01 11:32:05;;;;;;;4.20;2.50;;;19.50;97.40;;;;;;5115746;28;20032;-76
2023/07/01 11:34:31;;;;;;;4.93;2.78;;;19.60;97.40;;;;;;5115533;28;20074;-76
2023/07/01 11:36:58;;;;;;;4.80;2.65;;;19.60;96.70;;;;;;5115610;28;20056;-77
2023/07/01 11:39:25;;;;;;;6.82;3.00;;;19.60;96.90;;;;;;5116619;28;20024;-77
2023/07/01 11:41:55;;;;;;;5.05;2.90;;;19.70;96.90;;;;;;5098581;28;20020;-77
2023/07/01 11:44:27;;;;;;;4.57;2.95;;;19.80;96.80;;;;;;5115740;28;20024;-77
2023/07/01 11:46:53;;;;;;;6.00;2.85;;;19.90;96.70;;;;;;5115518;28;20059;-77
2023/07/01 11:49:23;;;;;;;5.57;3.35;;;20.00;96.50;;;;;;5116621;28;20025;-77
2023/07/01 11:51:54;;;;;;;5.80;3.40;;;19.90;95.80;;;;;;5116623;28;20016;-76
2023/07/01 11:54:23;;;;;;;5.65;3.95;;;20.00;95.80;;;;;;5114560;28;20084;-76
2023/07/01 11:57:06;;;;;;;6.38;3.25;;;20.00;95.10;;;;;;5116277;28;20083;-76
2023/07/01 11:59:33;;;;;;;6.35;3.53;;;20.00;95.50;;;;;;5100673;28;20024;-77
2023/07/01 12:02:00;;;;;;;6.22;3.75;;;20.10;95.40;;;;;;5116171;28;20021;-76
2023/07/01 12:04:28;;;;;;;5.07;3.45;;;20.20;95.10;;;;;;5115279;28;20034;-77
2023/07/01 12:07:12;;;;;;;5.97;3.78;;;20.30;94.80;;;;;;5114935;28;20020;-77
2023/07/01 12:09:42;;;;;;;5.78;4.07;;;20.40;94.60;;;;;;5115347;28;20031;-77
2023/07/01 12:12:10;;;;;;;6.32;3.90;;;20.40;94.80;;;;;;5116169;28;20031;-76
2023/07/01 12:14:36;;;;;;;5.50;3.60;;;20.30;94.00;;;;;;5116023;28;20076;-77
2023/07/01 12:17:02;;;;;;;6.10;3.17;;;20.40;94.40;;;;;;5115037;28;20054;-77
2023/07/01 12:19:30;;;;;;;5.35;3.47;;;20.40;94.10;;;;;;5114810;28;20080;-76
2023/07/01 12:21:57;;;;;;;7.35;3.70;;;20.30;93.60;;;;;;5115778;28;20024;-77
2023/07/01 12:24:25;;;;;;;5.47;3.58;;;20.30;93.30;;;;;;5115780;28;20028;-77
2023/07/01 12:27:03;;;;;;;5.07;3.33;;;20.40;93.40;;;;;;5115500;28;20159;-76
2023/07/01 12:29:29;;;;;;;5.22;3.13;;;20.40;93.60;;;;;;5115753;28;20103;-77
2023/07/01 12:31:54;;;;;;;6.47;3.72;;;20.40;93.70;;;;;;5115607;28;20024;-76
2023/07/01 12:34:20;;;;;;;5.30;3.63;;;20.50;93.70;;;;;;5097661;28;20020;-77
2023/07/01 12:36:47;;;;;;;6.55;3.90;;;20.50;94.10;;;;;;5114515;28;20050;-76
2023/07/01 12:39:17;;;;;;;5.97;3.67;;;20.60;93.90;;;;;;5115447;28;20028;-77
2023/07/01 12:41:47;;;;;;;6.90;4.05;;;20.70;93.40;;;;;;5115603;28;20087;-77
2023/07/01 12:44:13;;;;;;;5.55;3.70;;;20.80;93.40;;;;;;5114429;28;20032;-77
2023/07/01 12:46:45;;;;;;;6.43;3.50;;;20.80;93.50;;;;;;5114176;28;20032;-76
2023/07/01 12:49:12;;;;;;;7.63;4.05;;;20.70;93.90;;;;;;5097825;28;20034;-77
2023/07/01 12:51:38;;;;;;;6.65;3.83;;;20.50;94.00;;;;;;5114257;28;20028;-77